sensor_id;sensor_type;location;lat;lon;timestamp;pressure;altitude;pressure_sealevel;temperature;humidity
80986;BME280;70451;51.226;6.412;2023-09-30T00:01:52;101882.66;;;11.83;100.00
80986;BME280;70451;51.226;6.412;2023-09-30T00:04:07;101886.69;;;11.91;100.00
80986;BME280;70451;51.226;6.412;2023-09-30T00:06:24;101870.16;;;11.91;100.00
80986;BME280;70451;51.226;6.412;2023-09-30T00:08:39;101864.78;;;11.94;100.00
80986;BME280;70451;51.226;6.412;2023-09-30T00:10:56;101876.25;;;11.91;100.00
80986;BME280;70451;51.226;6.412;2023-09-30T00:13:12;101869.72;;;12.01;100.00
80986;BME280;70451;51.226;6.412;2023-09-30T00:15:28;101874.88;;;12.04;100.00
80986;BME280;70451;51.226;6.412;2023-09-30T00:17:43;101873.91;;;12.07;100.00
80986;BME280;70451;51.226;6.412;2023-09-30T00:19:58;101874.75;;;12.07;100.00
80986;BME280;70451;51.226;6.412;2023-09-30T00:22:14;101873.78;;;12.10;100.00
80986;BME280;70451;51.226;6.412;2023-09-30T00:24:30;101867.59;;;12.12;100.00
80986;BME280;70451;51.226;6.412;2023-09-30T00:26:45;101867.53;;;12.14;100.00
80986;BME280;70451;51.226;6.412;2023-09-30T00:29:01;101863.78;;;11.98;99.69
80986;BME280;70451;51.226;6.412;2023-09-30T00:31:19;101875.72;;;12.05;100.00
80986;BME280;70451;51.226;6.412;2023-09-30T00:33:35;101887.75;;;12.09;100.00
80986;BME280;70451;51.226;6.412;2023-09-30T00:35:50;101892.88;;;12.12;100.00
80986;BME280;70451;51.226;6.412;2023-09-30T00:38:05;101901.53;;;12.14;100.00
80986;BME280;70451;51.226;6.412;2023-09-30T00:40:21;101897.97;;;12.15;100.00
80986;BME280;70451;51.226;6.412;2023-09-30T00:42:36;101891.00;;;12.15;100.00
80986;BME280;70451;51.226;6.412;2023-09-30T00:44:51;101896.16;;;12.17;100.00
80986;BME280;70451;51.226;6.412;2023-09-30T00:47:07;101896.13;;;12.19;99.93
80986;BME280;70451;51.226;6.412;2023-09-30T00:49:25;101894.41;;;12.18;99.86
80986;BME280;70451;51.226;6.412;2023-09-30T00:51:40;101897.94;;;12.16;99.74
80986;BME280;70451;51.226;6.412;2023-09-30T00:53:59;101899.66;;;12.18;99.87
80986;BME280;70451;51.226;6.412;2023-09-30T00:56:14;101903.06;;;12.20;100.00
80986;BME280;70451;51.226;6.412;2023-09-30T00:58:30;101897.88;;;12.18;100.00
80986;BME280;70451;51.226;6.412;2023-09-30T01:00:46;101902.03;;;12.24;100.00
80986;BME280;70451;51.226;6.412;2023-09-30T01:03:02;101892.75;;;12.15;100.00
80986;BME280;70451;51.226;6.412;2023-09-30T01:05:19;101891.06;;;12.14;100.00
80986;BME280;70451;51.226;6.412;2023-09-30T01:07:34;101884.81;;;12.18;100.00
80986;BME280;70451;51.226;6.412;2023-09-30T01:09:50;101878.53;;;12.22;100.00
80986;BME280;70451;51.226;6.412;2023-09-30T01:12:06;101887.72;;;12.10;100.00
80986;BME280;70451;51.226;6.412;2023-09-30T01:14:24;101901.81;;;12.06;100.00
80986;BME280;70451;51.226;6.412;2023-09-30T01:16:39;101912.09;;;12.11;100.00
80986;BME280;70451;51.226;6.412;2023-09-30T01:18:54;101920.75;;;12.13;100.00
80986;BME280;70451;51.226;6.412;2023-09-30T01:21:10;101917.16;;;12.15;100.00
80986;BME280;70451;51.226;6.412;2023-09-30T01:23:26;101910.28;;;12.13;100.00
80986;BME280;70451;51.226;6.412;2023-09-30T01:25:41;101903.16;;;12.16;100.00
80986;BME280;70451;51.226;6.412;2023-09-30T01:27:59;101885.72;;;12.17;100.00
80986;BME280;70451;51.226;6.412;2023-09-30T01:30:15;101889.41;;;12.11;100.00
80986;BME280;70451;51.226;6.412;2023-09-30T01:32:30;101897.44;;;12.07;100.00
80986;BME280;70451;51.226;6.412;2023-09-30T01:34:46;101893.91;;;12.08;100.00
80986;BME280;70451;51.226;6.412;2023-09-30T01:37:01;101894.69;;;12.10;100.00
80986;BME280;70451;51.226;6.412;2023-09-30T01:39:16;101907.69;;;12.13;100.00
80986;BME280;70451;51.226;6.412;2023-09-30T01:41:32;101899.97;;;12.08;100.00
80986;BME280;70451;51.226;6.412;2023-09-30T01:43:47;101899.22;;;12.06;100.00
80986;BME280;70451;51.226;6.412;2023-09-30T01:46:03;101909.34;;;11.92;100.00
80986;BME280;70451;51.226;6.412;2023-09-30T01:48:20;101917.09;;;11.94;100.00
80986;BME280;70451;51.226;6.412;2023-09-30T01:50:35;101913.56;;;11.95;100.00
80986;BME280;70451;51.226;6.412;2023-09-30T01:52:51;101919.34;;;11.80;100.00
80986;BME280;70451;51.226;6.412;2023-09-30T01:55:06;101939.31;;;11.82;100.00
80986;BME280;70451;51.226;6.412;2023-09-30T01:57:22;101926.25;;;11.82;100.00
80986;BME280;70451;51.226;6.412;2023-09-30T01:59:37;101926.28;;;11.81;100.00
80986;BME280;70451;51.226;6.412;2023-09-30T02:01:52;101926.63;;;11.71;100.00
80986;BME280;70451;51.226;6.412;2023-09-30T02:04:08;101933.59;;;11.71;100.00
80986;BME280;70451;51.226;6.412;2023-09-30T02:06:23;101922.16;;;11.73;100.00
80986;BME280;70451;51.226;6.412;2023-09-30T02:08:38;101920.81;;;11.63;100.00
80986;BME280;70451;51.226;6.412;2023-09-30T02:10:53;101922.78;;;11.57;100.00
80986;BME280;70451;51.226;6.412;2023-09-30T02:13:09;101919.78;;;11.67;100.00
80986;BME280;70451;51.226;6.412;2023-09-30T02:15:24;101918.06;;;11.66;100.00
80986;BME280;70451;51.226;6.412;2023-09-30T02:17:40;101911.25;;;11.62;100.00
80986;BME280;70451;51.226;6.412;2023-09-30T02:20:00;101913.69;;;11.67;100.00
80986;BME280;70451;51.226;6.412;2023-09-30T02:22:17;101910.22;;;11.66;100.00
80986;BME280;70451;51.226;6.412;2023-09-30T02:24:33;101900.66;;;11.65;100.00
80986;BME280;70451;51.226;6.412;2023-09-30T02:26:48;101899.25;;;11.57;100.00
80986;BME280;70451;51.226;6.412;2023-09-30T02:29:04;101901.13;;;11.53;100.00
80986;BME280;70451;51.226;6.412;2023-09-30T02:31:22;101893.22;;;11.55;100.00
80986;BME280;70451;51.226;6.412;2023-09-30T02:33:39;101901.69;;;11.61;100.00
80986;BME280;70451;51.226;6.412;2023-09-30T02:35:54;101905.97;;;11.64;100.00
80986;BME280;70451;51.226;6.412;2023-09-30T02:38:09;101905.13;;;11.63;100.00
80986;BME280;70451;51.226;6.412;2023-09-30T02:40:26;101901.03;;;11.56;100.00
80986;BME280;70451;51.226;6.412;2023-09-30T02:42:41;101905.63;;;11.50;100.00
80986;BME280;70451;51.226;6.412;2023-09-30T02:44:59;101920.47;;;11.48;100.00
80986;BME280;70451;51.226;6.412;2023-09-30T02:47:15;101930.06;;;11.47;100.00
80986;BME280;70451;51.226;6.412;2023-09-30T02:49:32;101925.13;;;11.39;100.00
80986;BME280;70451;51.226;6.412;2023-09-30T02:51:48;101927.56;;;11.44;100.00
80986;BME280;70451;51.226;6.412;2023-09-30T02:54:03;101928.50;;;11.43;100.00
80986;BME280;70451;51.226;6.412;2023-09-30T02:56:19;101928.22;;;11.51;100.00
80986;BME280;70451;51.226;6.412;2023-09-30T02:58:35;101922.25;;;11.47;100.00
80986;BME280;70451;51.226;6.412;2023-09-30T03:00:51;101918.94;;;11.42;100.00
80986;BME280;70451;51.226;6.412;2023-09-30T03:03:06;101917.41;;;11.36;100.00
80986;BME280;70451;51.226;6.412;2023-09-30T03:05:22;101906.88;;;11.38;100.00
80986;BME280;70451;51.226;6.412;2023-09-30T03:07:38;101916.31;;;11.42;100.00
80986;BME280;70451;51.226;6.412;2023-09-30T03:09:53;101915.44;;;11.43;100.00
80986;BME280;70451;51.226;6.412;2023-09-30T03:12:10;101922.25;;;11.47;100.00
80986;BME280;70451;51.226;6.412;2023-09-30T03:14:27;101918.13;;;11.40;100.00
80986;BME280;70451;51.226;6.412;2023-09-30T03:16:45;101925.03;;;11.43;100.00
80986;BME280;70451;51.226;6.412;2023-09-30T03:19:01;101926.88;;;11.39;100.00
80986;BME280;70451;51.226;6.412;2023-09-30T03:21:23;101920.69;;;11.42;100.00
80986;BME280;70451;51.226;6.412;2023-09-30T03:23:38;101922.63;;;11.36;100.00
80986;BME280;70451;51.226;6.412;2023-09-30T03:25:58;101906.00;;;11.37;100.00
80986;BME280;70451;51.226;6.412;2023-09-30T03:28:13;101905.38;;;11.31;100.00
80986;BME280;70451;51.226;6.412;2023-09-30T03:30:29;101910.81;;;11.25;100.00
80986;BME280;70451;51.226;6.412;2023-09-30T03:32:46;101907.22;;;11.29;100.00
80986;BME280;70451;51.226;6.412;2023-09-30T03:35:02;101912.31;;;11.32;100.00
80986;BME280;70451;51.226;6.412;2023-09-30T03:37:17;101911.94;;;11.18;100.00
80986;BME280;70451;51.226;6.412;2023-09-30T03:39:32;101908.63;;;11.13;100.00
80986;BME280;70451;51.226;6.412;2023-09-30T03:41:48;101906.88;;;11.13;100.00
80986;BME280;70451;51.226;6.412;2023-09-30T03:44:03;101907.59;;;11.17;100.00
80986;BME280;70451;51.226;6.412;2023-09-30T03:46:18;101898.66;;;11.24;100.00
80986;BME280;70451;51.226;6.412;2023-09-30T03:48:34;101897.66;;;11.28;100.00
80986;BME280;70451;51.226;6.412;2023-09-30T03:50:54;101896.75;;;11.29;100.00
80986;BME280;70451;51.226;6.412;2023-09-30T03:53:09;101906.63;;;11.21;100.00
80986;BME280;70451;51.226;6.412;2023-09-30T03:55:25;101894.28;;;11.24;100.00
80986;BME280;70451;51.226;6.412;2023-09-30T03:57:40;101901.03;;;11.30;100.00
80986;BME280;70451;51.226;6.412;2023-09-30T03:59:55;101900.41;;;11.23;100.00
80986;BME280;70451;51.226;6.412;2023-09-30T04:02:11;101908.38;;;11.20;100.00
80986;BME280;70451;51.226;6.412;2023-09-30T04:04:26;101905.53;;;11.26;100.00
80986;BME280;70451;51.226;6.412;2023-09-30T04:06:41;101906.41;;;11.27;100.00
80986;BME280;70451;51.226;6.412;2023-09-30T04:08:57;101900.53;;;11.20;100.00
80986;BME280;70451;51.226;6.412;2023-09-30T04:11:14;101892.91;;;11.14;100.00
80986;BME280;70451;51.226;6.412;2023-09-30T04:13:33;101890.16;;;11.17;100.00
80986;BME280;70451;51.226;6.412;2023-09-30T04:15:48;101894.91;;;11.06;100.00
80986;BME280;70451;51.226;6.412;2023-09-30T04:18:05;101889.69;;;11.06;100.00
80986;BME280;70451;51.226;6.412;2023-09-30T04:20:20;101888.88;;;11.04;100.00
80986;BME280;70451;51.226;6.412;2023-09-30T04:22:38;101889.94;;;10.98;100.00
80986;BME280;70451;51.226;6.412;2023-09-30T04:24:53;101896.03;;;10.99;100.00
80986;BME280;70451;51.226;6.412;2023-09-30T04:27:08;101911.81;;;10.94;100.00
80986;BME280;70451;51.226;6.412;2023-09-30T04:29:24;101923.91;;;10.98;100.00
80986;BME280;70451;51.226;6.412;2023-09-30T04:31:39;101932.41;;;11.04;100.00
80986;BME280;70451;51.226;6.412;2023-09-30T04:33:56;101929.19;;;10.95;100.00
80986;BME280;70451;51.226;6.412;2023-09-30T04:36:15;101936.91;;;11.00;100.00
80986;BME280;70451;51.226;6.412;2023-09-30T04:38:30;101925.56;;;11.01;100.00
80986;BME280;70451;51.226;6.412;2023-09-30T04:40:46;101923.97;;;10.95;100.00
80986;BME280;70451;51.226;6.412;2023-09-30T04:43:03;101932.72;;;10.94;100.00
80986;BME280;70451;51.226;6.412;2023-09-30T04:45:20;101927.56;;;10.93;100.00
80986;BME280;70451;51.226;6.412;2023-09-30T04:47:36;101926.78;;;10.89;100.00
80986;BME280;70451;51.226;6.412;2023-09-30T04:49:52;101925.28;;;10.82;100.00
80986;BME280;70451;51.226;6.412;2023-09-30T04:52:07;101925.31;;;10.81;100.00
80986;BME280;70451;51.226;6.412;2023-09-30T04:54:23;101931.56;;;10.77;100.00
80986;BME280;70451;51.226;6.412;2023-09-30T04:56:38;101930.63;;;10.79;100.00
80986;BME280;70451;51.226;6.412;2023-09-30T04:58:54;101927.16;;;10.79;100.00
80986;BME280;70451;51.226;6.412;2023-09-30T05:01:09;101930.75;;;10.75;100.00
80986;BME280;70451;51.226;6.412;2023-09-30T05:03:25;101925.56;;;10.73;100.00
80986;BME280;70451;51.226;6.412;2023-09-30T05:05:41;101924.78;;;10.71;100.00
80986;BME280;70451;51.226;6.412;2023-09-30T05:07:57;101920.47;;;10.70;100.00
80986;BME280;70451;51.226;6.412;2023-09-30T05:10:13;101926.50;;;10.72;100.00
80986;BME280;70451;51.226;6.412;2023-09-30T05:12:31;101931.66;;;10.74;100.00
80986;BME280;70451;51.226;6.412;2023-09-30T05:14:48;101933.59;;;10.67;100.00
80986;BME280;70451;51.226;6.412;2023-09-30T05:17:03;101940.53;;;10.68;100.00
80986;BME280;70451;51.226;6.412;2023-09-30T05:19:20;101935.41;;;10.65;100.00
80986;BME280;70451;51.226;6.412;2023-09-30T05:21:36;101935.22;;;10.71;100.00
80986;BME280;70451;51.226;6.412;2023-09-30T05:23:52;101943.06;;;10.71;100.00
80986;BME280;70451;51.226;6.412;2023-09-30T05:26:07;101944.66;;;10.75;100.00
80986;BME280;70451;51.226;6.412;2023-09-30T05:28:23;101948.34;;;10.68;100.00
80986;BME280;70451;51.226;6.412;2023-09-30T05:30:38;101949.25;;;10.67;100.00
80986;BME280;70451;51.226;6.412;2023-09-30T05:32:55;101944.94;;;10.66;100.00
80986;BME280;70451;51.226;6.412;2023-09-30T05:35:10;101943.28;;;10.64;100.00
80986;BME280;70451;51.226;6.412;2023-09-30T05:37:28;101947.72;;;10.60;100.00
80986;BME280;70451;51.226;6.412;2023-09-30T05:39:43;101938.03;;;10.65;100.00
80986;BME280;70451;51.226;6.412;2023-09-30T05:41:59;101944.25;;;10.59;100.00
80986;BME280;70451;51.226;6.412;2023-09-30T05:44:15;101952.94;;;10.60;100.00
80986;BME280;70451;51.226;6.412;2023-09-30T05:46:30;101961.56;;;10.64;100.00
80986;BME280;70451;51.226;6.412;2023-09-30T05:48:46;101961.75;;;10.57;100.00
80986;BME280;70451;51.226;6.412;2023-09-30T05:51:01;101969.63;;;10.56;100.00
80986;BME280;70451;51.226;6.412;2023-09-30T05:53:17;101961.78;;;10.56;100.00
80986;BME280;70451;51.226;6.412;2023-09-30T05:55:32;101972.19;;;10.57;100.00
80986;BME280;70451;51.226;6.412;2023-09-30T05:57:50;101968.41;;;10.66;100.00
80986;BME280;70451;51.226;6.412;2023-09-30T06:00:07;101961.38;;;10.70;100.00
80986;BME280;70451;51.226;6.412;2023-09-30T06:02:29;101964.69;;;10.75;100.00
80986;BME280;70451;51.226;6.412;2023-09-30T06:04:45;101967.47;;;10.69;100.00
80986;BME280;70451;51.226;6.412;2023-09-30T06:07:01;101978.63;;;10.74;100.00
80986;BME280;70451;51.226;6.412;2023-09-30T06:09:16;101962.72;;;10.81;100.00
80986;BME280;70451;51.226;6.412;2023-09-30T06:11:31;101965.94;;;10.89;100.00
80986;BME280;70451;51.226;6.412;2023-09-30T06:13:47;101963.06;;;10.98;100.00
80986;BME280;70451;51.226;6.412;2023-09-30T06:16:02;101972.50;;;11.03;100.00
80986;BME280;70451;51.226;6.412;2023-09-30T06:18:17;101968.94;;;11.05;100.00
80986;BME280;70451;51.226;6.412;2023-09-30T06:20:34;101973.16;;;11.09;100.00
80986;BME280;70451;51.226;6.412;2023-09-30T06:22:49;101961.66;;;11.15;100.00
80986;BME280;70451;51.226;6.412;2023-09-30T06:25:05;101961.56;;;11.18;100.00
80986;BME280;70451;51.226;6.412;2023-09-30T06:27:20;101970.03;;;11.24;100.00
80986;BME280;70451;51.226;6.412;2023-09-30T06:29:35;101973.50;;;11.25;100.00
80986;BME280;70451;51.226;6.412;2023-09-30T06:31:51;101982.00;;;11.31;100.00
80986;BME280;70451;51.226;6.412;2023-09-30T06:34:06;101971.41;;;11.36;100.00
80986;BME280;70451;51.226;6.412;2023-09-30T06:36:22;101977.28;;;11.43;100.00
80986;BME280;70451;51.226;6.412;2023-09-30T06:38:37;101978.06;;;11.45;100.00
80986;BME280;70451;51.226;6.412;2023-09-30T06:40:52;101970.78;;;11.54;100.00
80986;BME280;70451;51.226;6.412;2023-09-30T06:43:09;101973.47;;;11.51;100.00
80986;BME280;70451;51.226;6.412;2023-09-30T06:45:24;101986.25;;;11.60;100.00
80986;BME280;70451;51.226;6.412;2023-09-30T06:47:40;101980.72;;;11.69;100.00
80986;BME280;70451;51.226;6.412;2023-09-30T06:49:56;101979.50;;;11.80;100.00
80986;BME280;70451;51.226;6.412;2023-09-30T06:52:11;101976.56;;;11.89;100.00
80986;BME280;70451;51.226;6.412;2023-09-30T06:54:27;101977.97;;;11.99;100.00
80986;BME280;70451;51.226;6.412;2023-09-30T06:56:42;101974.94;;;12.09;100.00
80986;BME280;70451;51.226;6.412;2023-09-30T06:58:57;101968.47;;;12.20;100.00
80986;BME280;70451;51.226;6.412;2023-09-30T07:01:15;101982.75;;;12.34;100.00
80986;BME280;70451;51.226;6.412;2023-09-30T07:03:32;101992.66;;;12.49;100.00
80986;BME280;70451;51.226;6.412;2023-09-30T07:05:48;101989.66;;;12.59;100.00
80986;BME280;70451;51.226;6.412;2023-09-30T07:08:07;101989.50;;;12.63;100.00
80986;BME280;70451;51.226;6.412;2023-09-30T07:10:23;101986.41;;;12.75;100.00
80986;BME280;70451;51.226;6.412;2023-09-30T07:12:38;101991.28;;;12.84;100.00
80986;BME280;70451;51.226;6.412;2023-09-30T07:14:54;101991.03;;;12.90;100.00
80986;BME280;70451;51.226;6.412;2023-09-30T07:17:09;101990.91;;;12.93;100.00
80986;BME280;70451;51.226;6.412;2023-09-30T07:19:24;101991.09;;;12.89;100.00
80986;BME280;70451;51.226;6.412;2023-09-30T07:21:40;102003.69;;;13.01;100.00
80986;BME280;70451;51.226;6.412;2023-09-30T07:23:55;102007.13;;;13.03;100.00
80986;BME280;70451;51.226;6.412;2023-09-30T07:26:10;102020.03;;;13.08;100.00
80986;BME280;70451;51.226;6.412;2023-09-30T07:28:26;102025.09;;;13.12;100.00
80986;BME280;70451;51.226;6.412;2023-09-30T07:30:41;102031.09;;;13.16;100.00
80986;BME280;70451;51.226;6.412;2023-09-30T07:32:57;102038.66;;;13.23;100.00
80986;BME280;70451;51.226;6.412;2023-09-30T07:35:12;102035.00;;;13.27;100.00
80986;BME280;70451;51.226;6.412;2023-09-30T07:37:30;102034.50;;;13.40;100.00
80986;BME280;70451;51.226;6.412;2023-09-30T07:39:45;102036.75;;;13.49;100.00
80986;BME280;70451;51.226;6.412;2023-09-30T07:42:01;102038.31;;;13.53;100.00
80986;BME280;70451;51.226;6.412;2023-09-30T07:44:16;102039.69;;;13.61;100.00
80986;BME280;70451;51.226;6.412;2023-09-30T07:46:31;102036.50;;;13.75;100.00
80986;BME280;70451;51.226;6.412;2023-09-30T07:48:47;102038.16;;;13.78;100.00
80986;BME280;70451;51.226;6.412;2023-09-30T07:51:02;102039.81;;;13.79;100.00
80986;BME280;70451;51.226;6.412;2023-09-30T07:53:17;102040.44;;;13.85;100.00
80986;BME280;70451;51.226;6.412;2023-09-30T07:55:33;102056.25;;;13.84;100.00
80986;BME280;70451;51.226;6.412;2023-09-30T07:57:48;102057.38;;;13.98;100.00
80986;BME280;70451;51.226;6.412;2023-09-30T08:00:04;102055.44;;;14.02;100.00
80986;BME280;70451;51.226;6.412;2023-09-30T08:02:24;102064.75;;;14.09;100.00
80986;BME280;70451;51.226;6.412;2023-09-30T08:04:43;102067.00;;;14.18;100.00
80986;BME280;70451;51.226;6.412;2023-09-30T08:06:58;102078.13;;;14.23;100.00
80986;BME280;70451;51.226;6.412;2023-09-30T08:09:14;102076.81;;;14.33;100.00
80986;BME280;70451;51.226;6.412;2023-09-30T08:11:29;102075.50;;;14.43;99.94
80986;BME280;70451;51.226;6.412;2023-09-30T08:13:47;102078.47;;;14.56;99.96
80986;BME280;70451;51.226;6.412;2023-09-30T08:16:03;102075.56;;;14.62;99.73
80986;BME280;70451;51.226;6.412;2023-09-30T08:18:18;102066.44;;;14.50;98.73
80986;BME280;70451;51.226;6.412;2023-09-30T08:20:34;102062.13;;;14.68;99.74
80986;BME280;70451;51.226;6.412;2023-09-30T08:22:49;102064.41;;;14.76;99.36
80986;BME280;70451;51.226;6.412;2023-09-30T08:25:05;102065.03;;;14.81;98.49
80986;BME280;70451;51.226;6.412;2023-09-30T08:27:21;102068.09;;;14.91;96.83
80986;BME280;70451;51.226;6.412;2023-09-30T08:29:36;102051.69;;;15.04;97.00
80986;BME280;70451;51.226;6.412;2023-09-30T08:31:52;102050.66;;;15.07;96.49
80986;BME280;70451;51.226;6.412;2023-09-30T08:34:07;102058.06;;;15.17;96.09
80986;BME280;70451;51.226;6.412;2023-09-30T08:36:23;102064.16;;;15.18;96.13
80986;BME280;70451;51.226;6.412;2023-09-30T08:38:40;102059.75;;;15.18;96.54
80986;BME280;70451;51.226;6.412;2023-09-30T08:40:56;102052.63;;;15.20;96.59
80986;BME280;70451;51.226;6.412;2023-09-30T08:43:11;102053.28;;;15.25;96.69
80986;BME280;70451;51.226;6.412;2023-09-30T08:45:28;102054.16;;;15.43;96.76
80986;BME280;70451;51.226;6.412;2023-09-30T08:47:45;102050.75;;;15.41;96.43
80986;BME280;70451;51.226;6.412;2023-09-30T08:50:07;102049.53;;;15.48;94.53
80986;BME280;70451;51.226;6.412;2023-09-30T08:52:26;102042.31;;;15.52;94.08
80986;BME280;70451;51.226;6.412;2023-09-30T08:54:41;102044.59;;;15.59;93.66
80986;BME280;70451;51.226;6.412;2023-09-30T08:56:57;102038.03;;;15.68;92.37
80986;BME280;70451;51.226;6.412;2023-09-30T08:59:15;102032.59;;;15.71;92.44
80986;BME280;70451;51.226;6.412;2023-09-30T09:01:31;102033.16;;;15.78;93.05
80986;BME280;70451;51.226;6.412;2023-09-30T09:03:46;102033.59;;;15.86;92.90
80986;BME280;70451;51.226;6.412;2023-09-30T09:06:07;102029.59;;;15.79;94.20
80986;BME280;70451;51.226;6.412;2023-09-30T09:08:25;102041.50;;;15.86;91.79
80986;BME280;70451;51.226;6.412;2023-09-30T09:11:09;102039.88;;;16.00;90.99
80986;BME280;70451;51.226;6.412;2023-09-30T09:13:26;102035.91;;;16.09;89.92
80986;BME280;70451;51.226;6.412;2023-09-30T09:15:41;102032.94;;;16.15;89.63
80986;BME280;70451;51.226;6.412;2023-09-30T09:17:57;102041.69;;;16.16;89.67
80986;BME280;70451;51.226;6.412;2023-09-30T09:20:19;102028.84;;;16.27;90.27
80986;BME280;70451;51.226;6.412;2023-09-30T09:22:42;102024.75;;;16.37;90.08
80986;BME280;70451;51.226;6.412;2023-09-30T09:24:58;102019.59;;;16.51;91.65
80986;BME280;70451;51.226;6.412;2023-09-30T09:27:14;102032.50;;;16.56;91.40
80986;BME280;70451;51.226;6.412;2023-09-30T09:29:35;102036.31;;;16.67;90.65
80986;BME280;70451;51.226;6.412;2023-09-30T09:31:51;102040.75;;;16.67;91.42
80986;BME280;70451;51.226;6.412;2023-09-30T09:34:14;102036.78;;;16.58;88.05
80986;BME280;70451;51.226;6.412;2023-09-30T09:36:43;102035.13;;;16.73;89.15
80986;BME280;70451;51.226;6.412;2023-09-30T09:38:59;102037.59;;;16.76;87.15
80986;BME280;70451;51.226;6.412;2023-09-30T09:41:15;102036.00;;;16.89;86.10
80986;BME280;70451;51.226;6.412;2023-09-30T09:43:31;102034.38;;;16.87;85.73
80986;BME280;70451;51.226;6.412;2023-09-30T09:45:49;102045.59;;;16.90;86.75
80986;BME280;70451;51.226;6.412;2023-09-30T09:48:05;102049.16;;;16.73;86.35
80986;BME280;70451;51.226;6.412;2023-09-30T09:50:22;102048.47;;;16.70;85.53
80986;BME280;70451;51.226;6.412;2023-09-30T09:52:37;102048.25;;;16.90;85.88
80986;BME280;70451;51.226;6.412;2023-09-30T09:54:55;102049.75;;;16.94;85.69
80986;BME280;70451;51.226;6.412;2023-09-30T09:57:14;102057.31;;;17.16;84.96
80986;BME280;70451;51.226;6.412;2023-09-30T09:59:32;102055.09;;;17.08;81.17
80986;BME280;70451;51.226;6.412;2023-09-30T10:01:47;102061.00;;;16.98;81.10
80986;BME280;70451;51.226;6.412;2023-09-30T10:04:04;102072.13;;;16.87;81.41
80986;BME280;70451;51.226;6.412;2023-09-30T10:06:20;102071.94;;;16.74;82.79
80986;BME280;70451;51.226;6.412;2023-09-30T10:08:41;102081.66;;;16.57;84.74
80986;BME280;70451;51.226;6.412;2023-09-30T10:10:57;102080.69;;;16.42;85.41
80986;BME280;70451;51.226;6.412;2023-09-30T10:16:07;102067.75;;;16.37;86.08
80986;BME280;70451;51.226;6.412;2023-09-30T10:18:23;102064.47;;;16.34;86.06
80986;BME280;70451;51.226;6.412;2023-09-30T10:20:39;102057.63;;;16.30;86.99
80986;BME280;70451;51.226;6.412;2023-09-30T10:23:19;102055.06;;;16.28;87.41
80986;BME280;70451;51.226;6.412;2023-09-30T10:25:35;102062.38;;;16.23;85.13
80986;BME280;70451;51.226;6.412;2023-09-30T10:27:51;102065.53;;;16.30;85.35
80986;BME280;70451;51.226;6.412;2023-09-30T10:30:08;102069.91;;;16.47;86.68
80986;BME280;70451;51.226;6.412;2023-09-30T10:35:08;102064.28;;;17.17;82.77
80986;BME280;70451;51.226;6.412;2023-09-30T10:37:23;102065.66;;;17.24;83.25
80986;BME280;70451;51.226;6.412;2023-09-30T10:39:58;102065.28;;;17.46;82.96
80986;BME280;70451;51.226;6.412;2023-09-30T10:42:49;102074.00;;;17.62;80.72
80986;BME280;70451;51.226;6.412;2023-09-30T10:45:41;102085.19;;;17.97;81.55
80986;BME280;70451;51.226;6.412;2023-09-30T10:47:45;102085.66;;;18.04;78.64
80986;BME280;70451;51.226;6.412;2023-09-30T10:50:00;102079.22;;;18.08;78.96
80986;BME280;70451;51.226;6.412;2023-09-30T10:52:22;102073.13;;;18.21;77.50
80986;BME280;70451;51.226;6.412;2023-09-30T10:54:40;102070.28;;;18.10;76.55
80986;BME280;70451;51.226;6.412;2023-09-30T10:56:57;102057.38;;;18.34;76.56
80986;BME280;70451;51.226;6.412;2023-09-30T10:59:20;102054.91;;;18.03;75.15
80986;BME280;70451;51.226;6.412;2023-09-30T11:01:35;102051.47;;;17.86;79.46
80986;BME280;70451;51.226;6.412;2023-09-30T11:03:58;102050.38;;;17.45;78.27
80986;BME280;70451;51.226;6.412;2023-09-30T11:06:16;102055.19;;;17.07;81.24
80986;BME280;70451;51.226;6.412;2023-09-30T11:08:36;102056.22;;;16.89;81.13
80986;BME280;70451;51.226;6.412;2023-09-30T11:10:52;102057.91;;;16.74;81.47
80986;BME280;70451;51.226;6.412;2023-09-30T11:13:08;102057.25;;;16.53;82.31
80986;BME280;70451;51.226;6.412;2023-09-30T11:15:24;102049.91;;;16.42;83.06
80986;BME280;70451;51.226;6.412;2023-09-30T11:17:39;102044.47;;;16.30;83.13
80986;BME280;70451;51.226;6.412;2023-09-30T11:19:55;102046.41;;;16.26;84.06
80986;BME280;70451;51.226;6.412;2023-09-30T11:22:10;102036.28;;;16.19;85.17
80986;BME280;70451;51.226;6.412;2023-09-30T11:24:26;102037.75;;;16.24;86.29
80986;BME280;70451;51.226;6.412;2023-09-30T11:26:41;102031.25;;;16.14;84.53
80986;BME280;70451;51.226;6.412;2023-09-30T11:29:05;102041.44;;;16.20;84.71
80986;BME280;70451;51.226;6.412;2023-09-30T11:31:20;102041.31;;;16.06;86.59
80986;BME280;70451;51.226;6.412;2023-09-30T11:33:53;102038.78;;;16.04;86.86
80986;BME280;70451;51.226;6.412;2023-09-30T11:36:10;102036.47;;;15.98;86.14
80986;BME280;70451;51.226;6.412;2023-09-30T11:38:29;102035.59;;;16.15;86.75
80986;BME280;70451;51.226;6.412;2023-09-30T11:41:03;102040.50;;;16.38;82.13
80986;BME280;70451;51.226;6.412;2023-09-30T11:43:20;102037.56;;;16.27;84.27
80986;BME280;70451;51.226;6.412;2023-09-30T11:45:37;102035.44;;;16.18;85.31
80986;BME280;70451;51.226;6.412;2023-09-30T11:47:52;102033.31;;;16.25;84.71
80986;BME280;70451;51.226;6.412;2023-09-30T11:50:08;102026.63;;;16.35;84.04
80986;BME280;70451;51.226;6.412;2023-09-30T11:52:27;102017.47;;;16.58;83.06
80986;BME280;70451;51.226;6.412;2023-09-30T11:54:44;102015.03;;;16.55;82.15